createdAt,value
2017-08-09T00:00:01.317Z,36.00
2017-08-09T00:02:29.468Z,36.00
2017-08-09T00:04:57.498Z,36.00
2017-08-09T00:07:25.563Z,35.90
2017-08-09T00:09:53.724Z,35.90
2017-08-09T00:12:21.831Z,35.90
2017-08-09T00:14:49.834Z,35.80
2017-08-09T00:17:18.000Z,35.90
2017-08-09T00:19:46.044Z,35.80
2017-08-09T00:22:14.056Z,35.80
2017-08-09T00:24:42.228Z,35.80
2017-08-09T00:27:10.274Z,35.80
2017-08-09T00:29:38.346Z,35.80
2017-08-09T00:32:06.492Z,35.80
2017-08-09T00:34:34.574Z,35.70
2017-08-09T00:37:02.824Z,35.70
2017-08-09T00:39:31.044Z,35.70
2017-08-09T00:41:59.125Z,35.70
2017-08-09T00:44:27.218Z,35.70
2017-08-09T00:46:55.540Z,35.70
2017-08-09T00:49:23.656Z,35.70
2017-08-09T00:51:51.872Z,35.70
2017-08-09T00:54:20.024Z,35.60
2017-08-09T00:56:48.070Z,35.50
2017-08-09T00:59:16.108Z,35.50
2017-08-09T01:01:44.280Z,35.50
2017-08-09T01:04:12.359Z,35.50
2017-08-09T01:06:40.439Z,35.50
2017-08-09T01:09:08.569Z,35.40
2017-08-09T01:11:36.641Z,35.40
2017-08-09T01:14:04.671Z,35.40
2017-08-09T01:16:32.946Z,35.40
2017-08-09T01:19:00.965Z,35.40
2017-08-09T01:21:28.961Z,35.30
2017-08-09T01:23:57.165Z,35.30
2017-08-09T01:26:25.258Z,35.20
2017-08-09T01:28:53.369Z,35.20
2017-08-09T01:31:21.584Z,35.10
2017-08-09T01:33:49.634Z,35.10
2017-08-09T01:36:17.692Z,34.90
2017-08-09T01:38:45.891Z,34.50
2017-08-09T01:41:14.051Z,34.30
2017-08-09T01:43:42.134Z,34.30
2017-08-09T01:46:10.348Z,34.30
2017-08-09T01:48:38.448Z,34.00
2017-08-09T01:51:06.533Z,34.10
2017-08-09T01:53:34.862Z,34.20
2017-08-09T01:56:02.968Z,34.10
2017-08-09T01:58:31.077Z,34.10
2017-08-09T02:00:59.525Z,34.10
2017-08-09T02:03:27.627Z,34.20
2017-08-09T02:05:55.751Z,34.10
2017-08-09T02:08:23.880Z,34.20
2017-08-09T02:10:51.883Z,34.30
2017-08-09T02:13:19.914Z,34.40
2017-08-09T02:15:48.092Z,34.60
2017-08-09T02:18:16.186Z,34.70
2017-08-09T02:20:44.268Z,34.80
2017-08-09T02:23:12.422Z,34.90
2017-08-09T02:25:40.468Z,35.00
2017-08-09T02:28:08.585Z,35.00
2017-08-09T02:30:36.890Z,35.00
2017-08-09T02:33:05.027Z,35.10
2017-08-09T02:35:33.054Z,35.20
2017-08-09T02:38:01.245Z,35.20
2017-08-09T02:40:29.312Z,35.30
2017-08-09T02:42:57.350Z,35.40
2017-08-09T02:45:25.578Z,35.50
2017-08-09T02:47:53.620Z,35.50
2017-08-09T02:50:21.701Z,35.70
2017-08-09T02:52:49.901Z,35.70
2017-08-09T02:55:18.084Z,35.80
2017-08-09T02:57:46.162Z,35.80
2017-08-09T03:00:14.354Z,35.80
2017-08-09T03:02:42.402Z,35.90
2017-08-09T03:05:10.490Z,36.00
2017-08-09T03:07:38.664Z,35.90
2017-08-09T03:10:06.725Z,36.00
2017-08-09T03:12:34.783Z,36.00
2017-08-09T03:15:02.986Z,36.10
2017-08-09T03:17:31.061Z,36.20
2017-08-09T03:19:59.106Z,36.20
2017-08-09T03:22:27.342Z,36.30
2017-08-09T03:24:55.418Z,36.40
2017-08-09T03:27:23.489Z,36.50
2017-08-09T03:29:51.701Z,36.50
2017-08-09T03:32:19.753Z,36.70
2017-08-09T03:34:47.902Z,36.90
2017-08-09T03:37:16.092Z,37.00
2017-08-09T03:39:44.089Z,37.10
2017-08-09T03:42:12.149Z,37.20
2017-08-09T03:44:40.310Z,37.10
2017-08-09T03:47:08.392Z,37.30
2017-08-09T03:49:36.427Z,37.30
2017-08-09T03:52:04.602Z,37.40
2017-08-09T03:54:32.670Z,37.70
2017-08-09T03:57:00.874Z,37.80
2017-08-09T03:59:29.052Z,38.00
2017-08-09T04:01:57.132Z,38.20
2017-08-09T04:04:25.226Z,38.40
2017-08-09T04:06:53.348Z,38.60
2017-08-09T04:09:21.380Z,38.80
2017-08-09T04:11:49.424Z,39.00
2017-08-09T04:14:17.621Z,39.20
2017-08-09T04:16:45.722Z,39.10
2017-08-09T04:19:13.722Z,39.30
2017-08-09T04:21:41.908Z,39.40
2017-08-09T04:24:09.994Z,39.40
2017-08-09T04:26:38.032Z,39.60
2017-08-09T04:29:06.269Z,39.90
2017-08-09T04:31:34.359Z,39.90
2017-08-09T04:34:02.452Z,40.20
2017-08-09T04:36:30.701Z,41.00
2017-08-09T04:38:58.763Z,41.40
2017-08-09T04:41:26.758Z,42.30
2017-08-09T04:43:54.930Z,43.50
2017-08-09T04:46:23.048Z,44.50
2017-08-09T04:48:51.106Z,46.20
2017-08-09T04:51:19.317Z,46.50
2017-08-09T04:53:47.430Z,45.80
2017-08-09T04:56:15.450Z,45.90
2017-08-09T04:58:43.787Z,45.00
2017-08-09T05:01:11.817Z,44.70
2017-08-09T05:03:39.880Z,44.40
2017-08-09T05:06:08.075Z,44.50
2017-08-09T05:08:36.136Z,45.20
2017-08-09T05:11:04.225Z,45.50
2017-08-09T05:13:32.513Z,46.70
2017-08-09T05:16:00.600Z,47.20
2017-08-09T05:18:28.664Z,47.90
2017-08-09T05:20:56.867Z,48.60
2017-08-09T05:23:24.885Z,48.50
2017-08-09T05:25:52.966Z,47.40
2017-08-09T05:28:21.132Z,46.40
2017-08-09T05:30:49.257Z,46.10
2017-08-09T05:33:17.351Z,46.40
2017-08-09T05:35:45.517Z,45.80
2017-08-09T05:38:13.553Z,45.90
2017-08-09T05:40:41.649Z,46.20
2017-08-09T05:43:09.848Z,46.90
2017-08-09T05:45:37.943Z,47.40
2017-08-09T05:48:06.005Z,48.20
2017-08-09T05:50:34.218Z,48.60
2017-08-09T05:53:02.278Z,49.30
2017-08-09T05:55:30.352Z,50.00
2017-08-09T05:57:58.551Z,50.60
2017-08-09T06:00:26.783Z,50.10
2017-08-09T06:02:54.896Z,49.90
2017-08-09T06:05:23.072Z,49.20
2017-08-09T06:07:51.160Z,48.60
2017-08-09T06:10:19.226Z,48.50
2017-08-09T06:12:47.377Z,47.50
2017-08-09T06:15:15.464Z,47.20
2017-08-09T06:17:43.534Z,47.00
2017-08-09T06:20:11.732Z,47.10
2017-08-09T06:22:39.801Z,47.00
2017-08-09T06:25:07.848Z,46.80
2017-08-09T06:27:36.052Z,47.20
2017-08-09T06:30:04.180Z,46.80
2017-08-09T06:32:32.279Z,47.20
2017-08-09T06:35:00.428Z,48.00
2017-08-09T06:37:28.462Z,49.30
2017-08-09T06:39:56.548Z,50.00
2017-08-09T06:42:24.761Z,50.70
2017-08-09T06:44:52.820Z,51.00
2017-08-09T06:47:20.885Z,52.00
2017-08-09T06:49:49.066Z,51.10
2017-08-09T06:52:17.149Z,51.10
2017-08-09T06:54:45.186Z,50.90
2017-08-09T06:57:13.378Z,50.90
2017-08-09T06:59:41.477Z,50.30
2017-08-09T07:02:09.644Z,49.60
2017-08-09T07:04:37.764Z,49.10
2017-08-09T07:07:05.857Z,49.10
2017-08-09T07:09:33.912Z,48.50
2017-08-09T07:12:02.066Z,48.00
2017-08-09T07:14:30.126Z,48.10
2017-08-09T07:16:58.226Z,48.20
2017-08-09T07:19:26.476Z,48.40
2017-08-09T07:21:54.511Z,48.20
2017-08-09T07:24:22.530Z,48.20
2017-08-09T07:26:50.674Z,48.20
2017-08-09T07:29:18.755Z,47.50
2017-08-09T07:31:46.818Z,47.80
2017-08-09T07:34:15.060Z,48.00
2017-08-09T07:36:43.104Z,47.80
2017-08-09T07:39:11.218Z,47.90
2017-08-09T07:41:39.517Z,47.90
2017-08-09T07:44:07.549Z,47.90
2017-08-09T07:46:35.654Z,48.20
2017-08-09T07:49:03.836Z,48.80
2017-08-09T07:51:31.950Z,49.70
2017-08-09T07:53:59.952Z,50.30
2017-08-09T07:56:28.216Z,51.40
2017-08-09T07:58:56.269Z,52.00
2017-08-09T08:01:24.379Z,51.90
2017-08-09T08:03:52.710Z,52.00
2017-08-09T08:06:20.714Z,52.00
2017-08-09T08:08:48.748Z,50.50
2017-08-09T08:11:16.931Z,48.90
2017-08-09T08:13:44.992Z,48.20
2017-08-09T08:16:13.042Z,47.50
2017-08-09T08:18:41.309Z,47.20
2017-08-09T08:21:09.393Z,47.10
2017-08-09T08:23:37.430Z,46.90
2017-08-09T08:26:05.640Z,46.70
2017-08-09T08:28:33.678Z,46.60
2017-08-09T08:31:01.707Z,46.60
2017-08-09T08:33:29.847Z,46.60
2017-08-09T08:35:57.933Z,46.50
2017-08-09T08:38:26.023Z,46.30
2017-08-09T08:40:54.188Z,46.10
2017-08-09T08:43:22.201Z,46.10
2017-08-09T08:45:50.275Z,45.80
2017-08-09T08:48:18.413Z,45.40
2017-08-09T08:50:46.469Z,45.20
2017-08-09T08:53:14.545Z,45.30
2017-08-09T08:55:42.692Z,45.40
2017-08-09T08:58:10.867Z,45.50
2017-08-09T09:00:38.946Z,45.30
2017-08-09T09:03:07.172Z,45.20
2017-08-09T09:05:35.358Z,44.60
2017-08-09T09:08:03.353Z,44.50
2017-08-09T09:10:31.527Z,44.40
2017-08-09T09:12:59.584Z,44.30
2017-08-09T09:15:27.632Z,44.10
2017-08-09T09:17:55.747Z,44.30
2017-08-09T09:20:23.838Z,43.90
2017-08-09T09:22:51.949Z,43.80
2017-08-09T09:25:20.110Z,44.20
2017-08-09T09:27:48.198Z,44.30
2017-08-09T09:30:16.287Z,44.20
2017-08-09T09:32:44.493Z,44.10
2017-08-09T09:35:12.572Z,44.10
2017-08-09T09:37:40.648Z,44.10
2017-08-09T09:40:08.817Z,44.00
2017-08-09T09:42:36.906Z,44.00
2017-08-09T09:45:04.942Z,43.80
2017-08-09T09:47:33.137Z,43.70
2017-08-09T09:50:01.182Z,43.50
2017-08-09T09:52:29.239Z,43.40
2017-08-09T09:54:57.400Z,43.60
2017-08-09T09:57:25.620Z,43.40
2017-08-09T09:59:53.663Z,43.50
2017-08-09T10:02:21.870Z,43.20
2017-08-09T10:04:49.858Z,43.50
2017-08-09T10:07:18.068Z,43.20
2017-08-09T10:09:46.257Z,43.00
2017-08-09T10:12:14.322Z,43.20
2017-08-09T10:14:42.356Z,43.00
2017-08-09T10:17:10.497Z,42.90
2017-08-09T10:19:38.581Z,42.70
2017-08-09T10:22:06.660Z,42.50
2017-08-09T10:24:34.786Z,42.60
2017-08-09T10:27:02.829Z,42.60
2017-08-09T10:29:30.823Z,42.50
2017-08-09T10:31:58.994Z,42.30
2017-08-09T10:34:27.014Z,42.20
2017-08-09T10:36:55.084Z,42.00
2017-08-09T10:39:23.239Z,41.70
2017-08-09T10:41:51.302Z,41.60
2017-08-09T10:44:19.353Z,41.70
2017-08-09T10:46:47.502Z,41.70
2017-08-09T10:49:15.498Z,41.80
2017-08-09T10:51:43.560Z,41.80
2017-08-09T10:54:11.700Z,41.50
2017-08-09T10:56:39.752Z,41.50
2017-08-09T10:59:07.853Z,41.40
2017-08-09T11:01:35.991Z,41.50
2017-08-09T11:04:04.060Z,41.50
2017-08-09T11:06:32.180Z,41.10
2017-08-09T11:09:00.476Z,41.20
2017-08-09T11:11:28.531Z,41.20
2017-08-09T11:13:56.653Z,41.20
2017-08-09T11:16:24.761Z,41.20
2017-08-09T11:18:52.934Z,41.10
2017-08-09T11:21:20.985Z,41.10
2017-08-09T11:23:49.170Z,41.10
2017-08-09T11:26:17.258Z,41.00
2017-08-09T11:28:45.318Z,41.00
2017-08-09T11:31:13.442Z,40.90
2017-08-09T11:33:41.510Z,41.00
2017-08-09T11:36:09.536Z,41.00
2017-08-09T11:38:37.712Z,40.90
2017-08-09T11:41:05.738Z,41.00
2017-08-09T11:43:33.795Z,40.90
2017-08-09T11:46:01.988Z,40.90
2017-08-09T11:48:30.080Z,40.90
2017-08-09T11:50:58.159Z,41.00
2017-08-09T11:53:26.355Z,41.00
2017-08-09T11:55:54.450Z,40.90
2017-08-09T11:58:22.561Z,40.90
2017-08-09T12:00:50.768Z,40.90
2017-08-09T12:03:18.810Z,40.80
2017-08-09T12:05:46.853Z,40.70
2017-08-09T12:08:15.016Z,40.70
2017-08-09T12:10:43.197Z,40.50
2017-08-09T12:13:11.253Z,40.40
2017-08-09T12:15:39.376Z,40.30
2017-08-09T12:18:07.456Z,40.30
2017-08-09T12:20:35.556Z,40.20
2017-08-09T12:23:03.768Z,40.20
2017-08-09T12:25:31.862Z,40.10
2017-08-09T12:27:59.902Z,40.20
2017-08-09T12:30:28.060Z,40.20
2017-08-09T12:32:56.126Z,40.10
2017-08-09T12:35:24.193Z,40.20
2017-08-09T12:37:52.327Z,40.00
2017-08-09T12:40:20.385Z,39.90
2017-08-09T12:42:48.473Z,40.00
2017-08-09T12:45:16.695Z,39.90
2017-08-09T12:47:44.776Z,40.00
2017-08-09T12:50:12.892Z,40.00
2017-08-09T12:52:41.090Z,39.90
2017-08-09T12:55:09.133Z,39.90
2017-08-09T12:57:37.194Z,39.90
2017-08-09T13:00:05.382Z,39.90
2017-08-09T13:02:33.482Z,39.80
2017-08-09T13:05:01.534Z,39.80
2017-08-09T13:07:29.661Z,39.70
2017-08-09T13:09:57.740Z,39.70
2017-08-09T13:12:25.934Z,39.60
2017-08-09T13:14:54.129Z,39.70
2017-08-09T13:17:22.168Z,39.70
2017-08-09T13:19:50.206Z,39.60
2017-08-09T13:22:18.396Z,39.70
2017-08-09T13:24:46.473Z,39.60
2017-08-09T13:27:14.521Z,39.60
2017-08-09T13:29:42.742Z,39.60
2017-08-09T13:32:10.823Z,39.50
2017-08-09T13:34:38.834Z,39.50
2017-08-09T13:37:06.976Z,39.50
2017-08-09T13:39:35.056Z,39.50
2017-08-09T13:42:03.130Z,39.40
2017-08-09T13:44:31.324Z,39.40
2017-08-09T13:46:59.413Z,39.40
2017-08-09T13:49:27.442Z,39.40
2017-08-09T13:51:55.566Z,39.40
2017-08-09T13:54:23.601Z,39.30
2017-08-09T13:56:51.693Z,39.20
2017-08-09T13:59:19.833Z,39.20
2017-08-09T14:01:47.911Z,39.10
2017-08-09T14:04:15.977Z,39.20
2017-08-09T14:06:44.189Z,39.20
2017-08-09T14:09:12.286Z,39.10
2017-08-09T14:11:40.344Z,39.10
2017-08-09T14:14:08.679Z,39.10
2017-08-09T14:16:36.890Z,39.10
2017-08-09T14:19:04.967Z,39.00
2017-08-09T14:21:33.157Z,39.00
2017-08-09T14:24:01.200Z,39.00
2017-08-09T14:26:29.266Z,39.00
2017-08-09T14:28:57.465Z,38.90
2017-08-09T14:31:25.498Z,38.90
2017-08-09T14:33:53.517Z,38.80
2017-08-09T14:36:21.673Z,38.80
2017-08-09T14:38:49.720Z,38.80
2017-08-09T14:41:17.802Z,38.80
2017-08-09T14:43:45.953Z,38.80
2017-08-09T14:46:13.967Z,38.70
2017-08-09T14:48:41.994Z,38.80
2017-08-09T14:51:10.300Z,38.80
2017-08-09T14:53:38.414Z,38.70
2017-08-09T14:56:06.414Z,38.70
2017-08-09T14:58:34.648Z,38.60
2017-08-09T15:01:02.662Z,38.60
2017-08-09T15:03:30.768Z,38.50
2017-08-09T15:05:58.929Z,38.40
2017-08-09T15:08:27.044Z,38.40
2017-08-09T15:10:55.088Z,38.40
2017-08-09T15:13:23.243Z,38.40
2017-08-09T15:15:51.440Z,38.40
2017-08-09T15:18:19.488Z,38.50
2017-08-09T15:20:47.668Z,38.50
2017-08-09T15:23:15.674Z,38.50
2017-08-09T15:25:43.752Z,38.50
2017-08-09T15:28:11.924Z,38.50
2017-08-09T15:30:40.007Z,38.40
2017-08-09T15:33:08.087Z,38.30
2017-08-09T15:35:36.248Z,38.30
2017-08-09T15:38:04.322Z,38.20
2017-08-09T15:40:32.380Z,38.20
2017-08-09T15:43:00.604Z,38.20
2017-08-09T15:45:28.652Z,38.10
2017-08-09T15:47:56.760Z,38.10
2017-08-09T15:50:24.961Z,38.00
2017-08-09T15:52:53.015Z,38.00
2017-08-09T15:55:21.091Z,38.00
2017-08-09T15:57:49.316Z,38.10
2017-08-09T16:00:17.317Z,38.10
2017-08-09T16:02:45.360Z,38.10
2017-08-09T16:05:13.566Z,38.10
2017-08-09T16:07:41.676Z,38.10
2017-08-09T16:10:09.756Z,38.10
2017-08-09T16:12:37.941Z,38.10
2017-08-09T16:15:05.987Z,38.10
2017-08-09T16:17:34.216Z,38.00
2017-08-09T16:20:02.379Z,38.00
2017-08-09T16:22:30.468Z,38.00
2017-08-09T16:24:58.574Z,38.00
2017-08-09T16:27:26.761Z,37.90
2017-08-09T16:29:54.817Z,37.80
2017-08-09T16:32:22.859Z,37.90
2017-08-09T16:34:51.040Z,37.80
2017-08-09T16:37:19.110Z,37.70
2017-08-09T16:39:47.105Z,37.50
2017-08-09T16:42:15.305Z,37.50
2017-08-09T16:44:43.398Z,37.40
2017-08-09T16:47:11.477Z,37.40
2017-08-09T16:49:39.674Z,37.30
2017-08-09T16:52:07.800Z,37.30
2017-08-09T16:54:35.857Z,37.20
2017-08-09T16:57:04.038Z,37.20
2017-08-09T16:59:32.120Z,37.20
2017-08-09T17:02:00.130Z,37.10
2017-08-09T17:04:28.254Z,37.20
2017-08-09T17:06:56.274Z,37.20
2017-08-09T17:09:24.342Z,37.10
2017-08-09T17:11:52.532Z,37.00
2017-08-09T17:14:20.634Z,37.00
2017-08-09T17:16:48.665Z,37.00
2017-08-09T17:19:16.941Z,37.10
2017-08-09T17:21:45.057Z,37.10
2017-08-09T17:24:13.089Z,37.10
2017-08-09T17:26:41.264Z,37.10
2017-08-09T17:29:09.338Z,37.00
2017-08-09T17:31:39.739Z,37.00
2017-08-09T17:34:07.963Z,37.00
2017-08-09T17:36:36.049Z,37.00
2017-08-09T17:39:04.402Z,37.00
2017-08-09T17:41:32.554Z,37.00
2017-08-09T17:44:00.617Z,37.00
2017-08-09T17:46:28.683Z,37.00
2017-08-09T17:48:56.851Z,37.00
2017-08-09T17:51:24.933Z,36.90
2017-08-09T17:53:53.012Z,36.90
2017-08-09T17:56:21.501Z,36.80
2017-08-09T17:58:50.328Z,36.90
2017-08-09T18:01:18.617Z,36.80
2017-08-09T18:03:47.011Z,36.80
2017-08-09T18:06:15.336Z,36.70
2017-08-09T18:08:43.421Z,36.80
2017-08-09T18:11:11.564Z,36.70
2017-08-09T18:13:39.633Z,36.70
2017-08-09T18:16:07.891Z,36.70
2017-08-09T18:18:36.074Z,36.70
2017-08-09T18:21:04.409Z,36.70
2017-08-09T18:23:32.400Z,36.60
2017-08-09T18:26:00.612Z,36.60
2017-08-09T18:28:28.684Z,36.60
2017-08-09T18:30:56.744Z,36.60
2017-08-09T18:33:24.921Z,36.60
2017-08-09T18:35:52.994Z,36.50
2017-08-09T18:38:21.100Z,36.50
2017-08-09T18:40:49.289Z,36.50
2017-08-09T18:43:17.332Z,36.50
2017-08-09T18:45:45.398Z,36.60
2017-08-09T18:48:13.562Z,36.60
2017-08-09T18:50:41.570Z,36.50
2017-08-09T18:53:09.615Z,36.40
2017-08-09T18:55:37.806Z,36.50
2017-08-09T18:58:05.846Z,36.40
2017-08-09T19:00:33.972Z,36.50
2017-08-09T19:03:02.130Z,36.50
2017-08-09T19:05:30.308Z,36.40
2017-08-09T19:07:58.414Z,36.40
2017-08-09T19:10:26.588Z,36.40
2017-08-09T19:12:54.618Z,36.40
2017-08-09T19:15:22.650Z,36.40
2017-08-09T19:17:50.828Z,36.30
2017-08-09T19:20:18.865Z,36.30
2017-08-09T19:22:46.994Z,36.30
2017-08-09T19:25:15.173Z,36.20
2017-08-09T19:27:43.220Z,36.20
2017-08-09T19:30:11.237Z,36.20
2017-08-09T19:32:39.408Z,36.20
2017-08-09T19:35:07.478Z,36.20
2017-08-09T19:37:35.574Z,36.10
2017-08-09T19:40:03.757Z,36.10
2017-08-09T19:42:31.876Z,36.10
2017-08-09T19:44:59.954Z,36.00
2017-08-09T19:47:28.143Z,36.00
2017-08-09T19:49:56.204Z,35.90
2017-08-09T19:52:24.274Z,35.90
2017-08-09T19:54:52.460Z,35.90
2017-08-09T19:57:20.526Z,35.90
2017-08-09T19:59:48.554Z,35.90
2017-08-09T20:02:16.706Z,35.90
2017-08-09T20:04:44.773Z,35.90
2017-08-09T20:07:12.897Z,35.80
2017-08-09T20:09:41.063Z,35.90
2017-08-09T20:12:09.140Z,35.80
2017-08-09T20:14:37.170Z,35.80
2017-08-09T20:17:05.344Z,35.80
2017-08-09T20:19:33.412Z,35.80
2017-08-09T20:22:01.465Z,35.80
2017-08-09T20:24:29.765Z,35.80
2017-08-09T20:26:57.820Z,35.70
2017-08-09T20:29:25.922Z,35.70
2017-08-09T20:31:54.096Z,35.70
2017-08-09T20:34:22.148Z,35.60
2017-08-09T20:36:50.166Z,35.70
2017-08-09T20:39:18.300Z,35.70
2017-08-09T20:41:46.310Z,35.60
2017-08-09T20:44:14.332Z,35.60
2017-08-09T20:46:42.527Z,35.60
2017-08-09T20:49:10.598Z,35.50
2017-08-09T20:51:38.671Z,35.60
2017-08-09T20:54:06.840Z,35.50
2017-08-09T20:56:34.910Z,35.50
2017-08-09T20:59:02.988Z,35.50
2017-08-09T21:01:31.155Z,35.50
2017-08-09T21:03:59.211Z,35.50
2017-08-09T21:06:27.266Z,35.50
2017-08-09T21:08:55.468Z,35.40
2017-08-09T21:11:23.474Z,35.40
2017-08-09T21:13:51.497Z,35.40
2017-08-09T21:16:19.674Z,35.40
2017-08-09T21:18:47.776Z,35.30
2017-08-09T21:21:15.812Z,35.30
2017-08-09T21:23:43.947Z,35.30
2017-08-09T21:26:12.190Z,35.30
2017-08-09T21:28:40.202Z,35.30
2017-08-09T21:31:08.362Z,35.20
2017-08-09T21:33:36.425Z,35.20
2017-08-09T21:36:04.472Z,35.20
2017-08-09T21:38:32.676Z,35.20
2017-08-09T21:41:00.782Z,35.30
2017-08-09T21:43:28.849Z,35.20
2017-08-09T21:45:57.021Z,35.30
2017-08-09T21:48:25.062Z,35.30
2017-08-09T21:50:53.112Z,35.30
2017-08-09T21:53:21.333Z,35.30
2017-08-09T21:55:49.380Z,35.30
2017-08-09T21:58:17.432Z,35.20
2017-08-09T22:00:45.754Z,35.20
2017-08-09T22:03:13.810Z,35.20
2017-08-09T22:05:41.893Z,35.30
2017-08-09T22:08:10.044Z,35.30
2017-08-09T22:10:38.160Z,35.30
2017-08-09T22:13:06.212Z,35.20
2017-08-09T22:15:34.464Z,35.20
2017-08-09T22:18:02.542Z,35.20
2017-08-09T22:20:30.580Z,35.20
2017-08-09T22:22:58.766Z,35.20
2017-08-09T22:25:26.849Z,35.20
2017-08-09T22:27:55.071Z,35.20
2017-08-09T22:43:28.356Z,35.20
2017-08-09T22:45:56.386Z,35.40
2017-08-09T22:48:24.444Z,35.30
2017-08-09T22:50:52.724Z,35.30
2017-08-09T22:53:20.759Z,35.20
2017-08-09T22:55:48.845Z,35.20
2017-08-09T22:58:16.986Z,35.20
2017-08-09T23:00:44.989Z,35.10
2017-08-09T23:03:13.057Z,35.20
2017-08-09T23:05:41.209Z,35.20
2017-08-09T23:08:09.304Z,35.20
2017-08-09T23:10:37.316Z,35.10
2017-08-09T23:13:05.488Z,35.00
2017-08-09T23:15:33.509Z,35.00
2017-08-09T23:18:01.584Z,35.00
2017-08-09T23:20:29.777Z,35.10
2017-08-09T23:22:57.849Z,35.10
2017-08-09T23:25:25.984Z,35.10
2017-08-09T23:27:54.125Z,35.10
2017-08-09T23:30:22.189Z,35.10
2017-08-09T23:32:50.236Z,35.10
2017-08-09T23:35:18.422Z,35.00
2017-08-09T23:37:46.483Z,35.00
2017-08-09T23:40:14.569Z,34.90
2017-08-09T23:42:42.732Z,34.80
2017-08-09T23:45:10.779Z,34.80
2017-08-09T23:47:38.848Z,34.80
2017-08-09T23:50:07.059Z,34.70
2017-08-09T23:52:35.102Z,34.80
2017-08-09T23:55:03.180Z,34.80
2017-08-09T23:57:31.397Z,34.80
2017-08-09T23:59:59.445Z,34.70
